Time;durP1;ratioP1;P1;durP2;ratioP2;P2;SDS_P1;SDS_P2;PMS_P1;PMS_P2;Temp;Humidity;BMP_temperature;BMP_pressure;BME280_temperature;BME280_humidity;BME280_pressure;Samples;Min_cycle;Max_cycle;Signal;HPM_P1;HPM_P2
2023/12/01 00:00:56;;;;;;;24.17;13.67;;;2.60;99.90;;;;;;5036318;28;21186;-67
2023/12/01 00:03:24;;;;;;;22.47;12.47;;;2.60;99.90;;;;;;5034623;28;20835;-67
2023/12/01 00:05:52;;;;;;;18.90;11.27;;;2.60;99.90;;;;;;5032573;28;21106;-67
2023/12/01 00:08:20;;;;;;;24.07;13.47;;;2.60;99.90;;;;;;5022344;28;20519;-65
2023/12/01 00:10:48;;;;;;;18.83;12.27;;;2.70;99.90;;;;;;5048287;28;20837;-66
2023/12/01 00:13:16;;;;;;;20.40;12.40;;;2.70;99.90;;;;;;5046347;28;20541;-67
2023/12/01 00:15:44;;;;;;;18.80;10.80;;;2.80;99.90;;;;;;5048126;28;20866;-65
2023/12/01 00:18:13;;;;;;;23.83;12.40;;;2.80;99.90;;;;;;5047920;28;20548;-66
2023/12/01 00:20:43;;;;;;;20.03;12.97;;;2.80;99.90;;;;;;5048420;28;20472;-65
2023/12/01 00:23:11;;;;;;;19.60;12.13;;;2.80;99.90;;;;;;5049100;28;20507;-68
2023/12/01 00:25:39;;;;;;;21.67;13.10;;;2.80;99.90;;;;;;5050567;28;20499;-66
2023/12/01 00:28:07;;;;;;;19.90;11.80;;;2.80;99.90;;;;;;5047993;28;20547;-71
2023/12/01 00:30:35;;;;;;;19.43;11.33;;;2.70;99.90;;;;;;5048191;28;20468;-66
2023/12/01 00:33:03;;;;;;;24.33;13.50;;;2.70;99.90;;;;;;5048817;28;20550;-67
2023/12/01 00:35:33;;;;;;;27.40;13.83;;;2.60;99.90;;;;;;5048117;28;20515;-67
2023/12/01 00:38:01;;;;;;;22.90;13.00;;;2.70;99.90;;;;;;5048876;28;20448;-68
2023/12/01 00:40:29;;;;;;;24.10;13.20;;;2.70;99.90;;;;;;5047473;28;20491;-67
2023/12/01 00:42:57;;;;;;;23.70;13.57;;;2.70;99.90;;;;;;5047368;28;20475;-68
2023/12/01 00:45:26;;;;;;;23.40;13.53;;;2.70;99.90;;;;;;5046626;28;20938;-67
2023/12/01 00:47:54;;;;;;;22.60;14.20;;;2.60;99.90;;;;;;5047146;28;20997;-67
2023/12/01 00:50:22;;;;;;;26.27;13.83;;;2.60;99.90;;;;;;5046218;28;20525;-66
2023/12/01 00:52:52;;;;;;;22.00;12.70;;;2.60;99.90;;;;;;5047190;28;20501;-66
2023/12/01 00:55:20;;;;;;;21.07;12.40;;;2.70;99.90;;;;;;5046025;28;20565;-68
2023/12/01 00:57:53;;;;;;;22.83;14.07;;;2.80;99.90;;;;;;5047125;28;20475;-68
2023/12/01 01:00:22;;;;;;;21.63;13.20;;;2.80;99.90;;;;;;5047387;28;20471;-67
2023/12/01 01:02:51;;;;;;;21.03;12.37;;;2.70;99.90;;;;;;5048624;28;20501;-67
2023/12/01 01:05:19;;;;;;;22.40;12.23;;;2.70;99.90;;;;;;5046658;28;20534;-70
2023/12/01 01:07:47;;;;;;;23.83;13.80;;;2.70;99.90;;;;;;5047356;28;20849;-72
2023/12/01 01:10:16;;;;;;;22.47;13.73;;;2.80;99.90;;;;;;5046250;28;20440;-68
2023/12/01 01:12:44;;;;;;;22.30;11.63;;;2.70;99.90;;;;;;5047433;28;21003;-67
2023/12/01 01:15:12;;;;;;;20.43;13.50;;;2.70;99.90;;;;;;5046447;28;20491;-66
2023/12/01 01:17:40;;;;;;;22.57;14.23;;;2.60;99.90;;;;;;5047021;28;20895;-65
2023/12/01 01:20:10;;;;;;;22.23;14.07;;;2.70;99.90;;;;;;5045901;28;20945;-67
2023/12/01 01:22:38;;;;;;;23.70;14.10;;;2.60;99.90;;;;;;5046466;28;20444;-67
2023/12/01 01:25:07;;;;;;;21.57;12.67;;;2.70;99.90;;;;;;5045880;28;20875;-65
2023/12/01 01:27:36;;;;;;;24.30;14.30;;;2.70;99.90;;;;;;5046372;28;20513;-68
2023/12/01 01:30:05;;;;;;;28.40;15.93;;;2.80;99.90;;;;;;5045916;28;20452;-64
2023/12/01 01:32:33;;;;;;;24.10;14.47;;;2.70;99.90;;;;;;5046376;28;20483;-69
2023/12/01 01:35:01;;;;;;;24.27;15.10;;;2.70;99.90;;;;;;5045671;28;20496;-70
2023/12/01 01:37:29;;;;;;;29.30;15.17;;;2.70;99.90;;;;;;5046397;28;21096;-71
2023/12/01 01:39:57;;;;;;;25.17;17.27;;;2.60;99.90;;;;;;5046101;28;20825;-66
2023/12/01 01:42:25;;;;;;;25.87;16.53;;;2.60;99.90;;;;;;5045488;28;20957;-68
2023/12/01 01:44:54;;;;;;;29.20;17.70;;;2.60;99.90;;;;;;5046786;28;20963;-67
2023/12/01 01:47:22;;;;;;;22.87;15.47;;;2.60;99.90;;;;;;5047108;28;20535;-69
2023/12/01 01:49:50;;;;;;;24.80;15.57;;;2.70;99.90;;;;;;5046736;28;20510;-69
2023/12/01 01:52:19;;;;;;;21.90;14.40;;;2.60;99.90;;;;;;5047466;28;20892;-67
2023/12/01 01:54:47;;;;;;;22.80;14.30;;;2.60;99.90;;;;;;5046579;28;20456;-69
2023/12/01 01:57:15;;;;;;;23.53;13.90;;;2.60;99.90;;;;;;5046961;28;20444;-67
2023/12/01 01:59:44;;;;;;;25.80;14.97;;;2.60;99.90;;;;;;5046871;28;20462;-68
2023/12/01 02:02:13;;;;;;;23.77;14.47;;;2.50;99.90;;;;;;5050033;28;20513;-68
2023/12/01 02:04:42;;;;;;;25.63;16.20;;;2.40;99.90;;;;;;5050597;28;20555;-67
2023/12/01 02:07:25;;;;;;;27.03;15.33;;;2.30;99.90;;;;;;5050789;28;20965;-70
2023/12/01 02:09:54;;;;;;;25.27;14.40;;;2.40;99.90;;;;;;5050569;28;20479;-67
2023/12/01 02:12:22;;;;;;;23.30;13.80;;;2.60;99.90;;;;;;5053465;28;20446;-68
2023/12/01 02:14:50;;;;;;;20.30;13.10;;;2.60;99.90;;;;;;5050034;28;20447;-69
2023/12/01 02:17:19;;;;;;;21.60;13.93;;;2.60;99.90;;;;;;5050749;28;20524;-67
2023/12/01 02:19:48;;;;;;;25.00;14.17;;;2.60;99.90;;;;;;5050482;28;20518;-67
2023/12/01 02:22:17;;;;;;;24.77;14.80;;;2.60;99.90;;;;;;5050665;28;20551;-68
2023/12/01 02:24:45;;;;;;;22.20;13.90;;;2.50;99.90;;;;;;5050302;28;20494;-67
2023/12/01 02:27:13;;;;;;;23.13;14.30;;;2.50;99.90;;;;;;5050432;28;20844;-68
2023/12/01 02:29:41;;;;;;;26.40;14.90;;;2.50;99.90;;;;;;5049758;28;20451;-67
2023/12/01 02:32:09;;;;;;;23.07;15.07;;;2.50;99.90;;;;;;5050629;28;20459;-68
2023/12/01 02:34:37;;;;;;;25.53;15.70;;;2.50;99.90;;;;;;5049839;28;20470;-68
2023/12/01 02:37:05;;;;;;;22.97;14.30;;;2.50;99.90;;;;;;5050479;28;20515;-68
2023/12/01 02:39:36;;;;;;;26.30;17.27;;;2.50;99.90;;;;;;5049917;28;20450;-69
2023/12/01 02:42:05;;;;;;;23.90;14.93;;;2.60;99.90;;;;;;5050463;28;20463;-67
2023/12/01 02:44:32;;;;;;;31.07;15.27;;;2.60;99.90;;;;;;5049563;28;20960;-70
2023/12/01 02:47:00;;;;;;;24.63;15.17;;;2.60;99.90;;;;;;5050247;28;21098;-69
2023/12/01 02:49:28;;;;;;;21.50;13.87;;;2.60;99.90;;;;;;5049739;28;20916;-67
2023/12/01 02:51:56;;;;;;;22.87;15.63;;;2.60;99.90;;;;;;5049279;28;20472;-72
2023/12/01 02:54:24;;;;;;;28.93;15.60;;;2.60;99.90;;;;;;5047891;28;20532;-70
2023/12/01 02:56:53;;;;;;;23.07;15.30;;;2.60;99.90;;;;;;5048771;28;21063;-67
2023/12/01 02:59:21;;;;;;;23.93;14.50;;;2.60;99.90;;;;;;5047991;28;20483;-67
2023/12/01 03:01:49;;;;;;;25.03;15.93;;;2.50;99.90;;;;;;5048380;28;20463;-71
2023/12/01 03:04:17;;;;;;;27.47;15.67;;;2.60;99.90;;;;;;5047773;28;20517;-68
2023/12/01 03:06:45;;;;;;;26.93;16.53;;;2.60;99.90;;;;;;5048753;28;20451;-70
2023/12/01 03:09:16;;;;;;;24.90;14.90;;;2.60;99.90;;;;;;5047962;28;20790;-67
2023/12/01 03:11:46;;;;;;;26.10;16.57;;;2.40;99.90;;;;;;5048513;28;20472;-68
2023/12/01 03:14:16;;;;;;;24.77;15.13;;;2.30;99.90;;;;;;5047992;28;20472;-69
2023/12/01 03:16:44;;;;;;;25.73;14.93;;;2.20;99.90;;;;;;5048862;28;20538;-67
2023/12/01 03:19:12;;;;;;;26.10;15.53;;;2.20;99.90;;;;;;5048108;28;20218;-69
2023/12/01 03:21:40;;;;;;;25.80;16.50;;;2.10;99.90;;;;;;5048696;28;20468;-67
2023/12/01 03:24:09;;;;;;;25.37;17.30;;;2.10;99.90;;;;;;5048802;28;20505;-68
2023/12/01 03:26:37;;;;;;;31.10;17.27;;;2.10;99.90;;;;;;5049523;28;20436;-69
2023/12/01 03:29:05;;;;;;;26.30;16.02;;;2.10;99.90;;;;;;5049541;28;20447;-67
2023/12/01 03:31:34;;;;;;;27.48;16.92;;;2.10;99.90;;;;;;5049822;28;20234;-70
2023/12/01 03:34:03;;;;;;;30.13;18.43;;;2.10;99.90;;;;;;5048550;28;20655;-67
2023/12/01 03:36:31;;;;;;;28.57;18.90;;;2.00;99.90;;;;;;5049367;28;20598;-68
2023/12/01 03:38:59;;;;;;;28.15;17.83;;;2.10;99.90;;;;;;5049493;28;20444;-67
2023/12/01 03:41:27;;;;;;;31.27;17.70;;;2.00;99.90;;;;;;5048827;28;20236;-67
2023/12/01 03:43:55;;;;;;;30.27;18.25;;;1.90;99.90;;;;;;5049132;28;20451;-67
2023/12/01 03:46:23;;;;;;;28.70;18.10;;;1.80;99.90;;;;;;5049184;28;20240;-68
2023/12/01 03:48:52;;;;;;;31.50;18.83;;;1.80;99.90;;;;;;5049349;28;21257;-67
2023/12/01 03:51:20;;;;;;;32.85;19.75;;;1.80;99.90;;;;;;5057182;28;20844;-69
2023/12/01 03:53:48;;;;;;;29.53;16.87;;;1.70;99.90;;;;;;5048290;28;20255;-68
2023/12/01 03:56:16;;;;;;;31.60;19.05;;;1.60;99.90;;;;;;5047936;28;20576;-70
2023/12/01 03:58:44;;;;;;;35.28;19.85;;;1.60;99.90;;;;;;5048365;28;20236;-70
2023/12/01 04:01:12;;;;;;;30.27;18.92;;;1.60;99.90;;;;;;5048236;28;20314;-68
2023/12/01 04:03:40;;;;;;;31.50;18.03;;;1.50;99.90;;;;;;5048840;28;20860;-70
2023/12/01 04:06:10;;;;;;;31.45;18.73;;;1.50;99.90;;;;;;5048734;28;20525;-69
2023/12/01 04:08:38;;;;;;;34.75;19.23;;;1.50;99.90;;;;;;5057138;28;20231;-69
2023/12/01 04:11:07;;;;;;;34.45;20.00;;;1.40;99.90;;;;;;5048897;28;20227;-68
2023/12/01 04:13:36;;;;;;;33.45;18.52;;;1.40;99.90;;;;;;5048718;28;20212;-69
2023/12/01 04:16:06;;;;;;;30.92;19.08;;;1.40;99.90;;;;;;5048527;28;20730;-71
2023/12/01 04:18:38;;;;;;;30.13;17.90;;;1.40;99.90;;;;;;5049178;28;20614;-67
2023/12/01 04:21:08;;;;;;;30.57;18.17;;;1.30;99.90;;;;;;5048523;28;20466;-68
2023/12/01 04:23:37;;;;;;;31.40;18.70;;;1.30;99.90;;;;;;5051617;28;20471;-69
2023/12/01 04:26:06;;;;;;;31.17;18.10;;;1.20;99.90;;;;;;5047761;28;20300;-68
2023/12/01 04:28:34;;;;;;;30.52;17.90;;;1.20;99.90;;;;;;5048490;28;20675;-67
2023/12/01 04:31:05;;;;;;;31.85;19.40;;;1.20;99.90;;;;;;5047872;28;20744;-68
2023/12/01 04:33:40;;;;;;;32.63;18.17;;;1.20;99.90;;;;;;5048079;28;20217;-69
2023/12/01 04:36:11;;;;;;;29.20;18.33;;;1.20;99.90;;;;;;5047955;28;20217;-68
2023/12/01 04:38:42;;;;;;;26.33;17.55;;;1.10;99.90;;;;;;5047767;28;20205;-69
2023/12/01 04:41:10;;;;;;;26.60;16.73;;;1.10;99.90;;;;;;5047925;28;20248;-69
2023/12/01 04:43:40;;;;;;;31.33;19.55;;;1.00;99.90;;;;;;5048280;28;20278;-68
2023/12/01 04:46:08;;;;;;;30.25;18.33;;;1.10;99.90;;;;;;5047888;28;20257;-67
2023/12/01 04:48:37;;;;;;;33.28;18.27;;;1.10;99.90;;;;;;5047934;28;20222;-68
2023/12/01 04:51:05;;;;;;;30.05;18.02;;;1.10;99.90;;;;;;5047667;28;20255;-68
2023/12/01 04:53:33;;;;;;;24.85;16.90;;;1.00;99.90;;;;;;5048085;28;20297;-67
2023/12/01 04:56:02;;;;;;;27.55;16.33;;;1.00;99.90;;;;;;5047449;28;20210;-68
2023/12/01 04:58:30;;;;;;;30.90;17.88;;;1.00;99.90;;;;;;5047624;28;20603;-68
2023/12/01 05:00:58;;;;;;;36.05;17.77;;;1.00;99.90;;;;;;5047513;28;20255;-68
2023/12/01 05:03:27;;;;;;;27.77;15.85;;;0.90;99.90;;;;;;5047915;28;20586;-71
2023/12/01 05:05:55;;;;;;;25.67;15.35;;;0.90;99.90;;;;;;5047243;28;20215;-67
2023/12/01 05:08:23;;;;;;;29.65;16.45;;;0.90;99.90;;;;;;5047817;28;20614;-69
2023/12/01 05:10:51;;;;;;;27.33;16.35;;;0.90;99.90;;;;;;5047147;28;20289;-72
2023/12/01 05:13:21;;;;;;;29.20;17.30;;;1.00;99.90;;;;;;5047578;28;20586;-71
2023/12/01 05:15:49;;;;;;;26.55;16.73;;;0.90;99.90;;;;;;5047219;28;20445;-68
2023/12/01 05:18:17;;;;;;;31.52;17.67;;;0.90;99.90;;;;;;5047400;28;20241;-70
2023/12/01 05:20:45;;;;;;;31.20;18.30;;;0.90;99.90;;;;;;5046415;28;20234;-68
2023/12/01 05:23:16;;;;;;;34.45;19.20;;;0.90;99.90;;;;;;5046309;28;20629;-70
2023/12/01 05:25:46;;;;;;;27.98;17.55;;;0.90;99.90;;;;;;5046131;28;20345;-69
2023/12/01 05:28:14;;;;;;;29.63;17.02;;;0.90;99.90;;;;;;5046503;28;20215;-71
2023/12/01 05:30:46;;;;;;;30.67;16.60;;;0.90;99.90;;;;;;5046681;28;20296;-68
2023/12/01 05:33:15;;;;;;;27.42;17.58;;;0.90;99.90;;;;;;5046343;28;20218;-72
2023/12/01 05:35:43;;;;;;;27.95;16.73;;;1.00;99.90;;;;;;5048193;28;20209;-70
2023/12/01 05:38:11;;;;;;;27.67;17.75;;;0.90;99.90;;;;;;5050190;28;20226;-68
2023/12/01 05:40:39;;;;;;;29.50;16.73;;;0.90;99.90;;;;;;5050270;28;20763;-69
2023/12/01 05:43:08;;;;;;;31.23;17.27;;;1.10;99.90;;;;;;5050410;28;20210;-68
2023/12/01 05:45:36;;;;;;;28.95;17.42;;;1.10;99.90;;;;;;5049639;28;20865;-69
2023/12/01 05:48:07;;;;;;;29.58;16.70;;;1.10;99.90;;;;;;5050872;28;20278;-68
2023/12/01 05:50:37;;;;;;;36.00;19.85;;;1.10;99.90;;;;;;5049454;28;20253;-66
2023/12/01 05:53:07;;;;;;;31.55;19.10;;;1.00;99.90;;;;;;5051045;28;20283;-68
2023/12/01 05:55:36;;;;;;;29.15;16.35;;;1.10;99.90;;;;;;5050562;28;20288;-70
2023/12/01 05:58:09;;;;;;;27.45;16.13;;;1.10;99.90;;;;;;5050605;28;20229;-68
2023/12/01 06:00:37;;;;;;;25.50;15.48;;;1.10;99.90;;;;;;5050440;28;20746;-72
2023/12/01 06:03:08;;;;;;;28.38;16.73;;;1.00;99.90;;;;;;5050193;28;20215;-64
2023/12/01 06:05:38;;;;;;;30.98;17.48;;;1.00;99.90;;;;;;5051006;28;20222;-69
2023/12/01 06:08:08;;;;;;;27.45;17.23;;;0.90;99.90;;;;;;5054110;28;20846;-65
2023/12/01 06:10:36;;;;;;;30.40;17.00;;;0.90;99.90;;;;;;5050200;28;20307;-68
2023/12/01 06:13:05;;;;;;;23.90;15.73;;;1.00;99.90;;;;;;5049655;28;20215;-67
2023/12/01 06:15:33;;;;;;;25.63;15.75;;;1.00;99.90;;;;;;5049223;28;20848;-67
2023/12/01 06:18:02;;;;;;;24.63;15.20;;;1.00;99.90;;;;;;5049345;28;20570;-71
2023/12/01 06:20:31;;;;;;;25.40;15.60;;;1.00;99.90;;;;;;5049053;28;20228;-70
2023/12/01 06:23:01;;;;;;;27.50;16.75;;;1.00;99.90;;;;;;5049740;28;20213;-69
2023/12/01 06:25:31;;;;;;;29.48;17.70;;;0.90;99.90;;;;;;5048585;28;20204;-70
2023/12/01 06:28:02;;;;;;;29.98;16.80;;;1.00;99.90;;;;;;5050986;28;20207;-71
2023/12/01 06:30:33;;;;;;;27.65;16.63;;;1.10;99.90;;;;;;5052341;28;20261;-69
2023/12/01 06:33:02;;;;;;;26.63;15.93;;;1.10;99.90;;;;;;5057967;28;20667;-68
2023/12/01 06:35:32;;;;;;;26.38;16.58;;;1.10;99.90;;;;;;5053357;28;20211;-66
2023/12/01 06:38:00;;;;;;;25.75;15.15;;;1.00;99.90;;;;;;5054880;28;20229;-66
2023/12/01 06:40:31;;;;;;;29.10;17.05;;;0.90;99.90;;;;;;5053551;28;20229;-70
2023/12/01 06:42:59;;;;;;;25.55;15.60;;;0.90;99.90;;;;;;5053221;28;20768;-67
2023/12/01 06:45:28;;;;;;;25.80;15.13;;;1.00;99.90;;;;;;5050237;28;20212;-64
2023/12/01 06:47:59;;;;;;;25.02;15.25;;;1.00;99.90;;;;;;5048886;28;20289;-66
2023/12/01 06:50:30;;;;;;;26.90;16.42;;;1.00;99.90;;;;;;5048095;28;20219;-74
2023/12/01 06:53:00;;;;;;;30.70;16.60;;;1.00;99.90;;;;;;5049258;28;20266;-68
2023/12/01 06:55:29;;;;;;;28.55;16.58;;;0.90;99.90;;;;;;5049477;28;20702;-66
2023/12/01 06:57:57;;;;;;;31.60;17.65;;;1.00;99.90;;;;;;5050226;28;20239;-66
2023/12/01 07:00:30;;;;;;;30.70;16.42;;;1.00;99.90;;;;;;5049815;28;20312;-67
2023/12/01 07:03:00;;;;;;;28.13;16.77;;;1.00;99.90;;;;;;5050191;28;20214;-71
2023/12/01 07:05:31;;;;;;;27.50;16.63;;;0.90;99.90;;;;;;5049276;28;20212;-67
2023/12/01 07:08:01;;;;;;;26.77;15.70;;;0.90;99.90;;;;;;5049980;28;20234;-69
2023/12/01 07:10:32;;;;;;;24.60;16.10;;;0.80;99.90;;;;;;5049558;28;20234;-66
2023/12/01 07:13:00;;;;;;;26.98;15.57;;;0.80;99.90;;;;;;5050184;28;20368;-66
2023/12/01 07:15:29;;;;;;;25.15;15.55;;;0.80;99.90;;;;;;5049386;28;20208;-66
2023/12/01 07:17:58;;;;;;;25.15;15.98;;;0.80;99.90;;;;;;5049779;28;20679;-68
2023/12/01 07:20:26;;;;;;;28.30;16.92;;;0.70;99.90;;;;;;5049120;28;20238;-68
2023/12/01 07:22:55;;;;;;;44.03;17.83;;;0.80;99.90;;;;;;5049835;28;20678;-66
2023/12/01 07:25:25;;;;;;;25.40;14.38;;;0.80;99.90;;;;;;5049168;28;20220;-67
2023/12/01 07:27:56;;;;;;;25.42;14.63;;;0.90;99.90;;;;;;5049602;28;20765;-66
2023/12/01 07:30:25;;;;;;;23.98;14.40;;;0.80;99.90;;;;;;5049056;28;20225;-67
2023/12/01 07:32:55;;;;;;;25.50;15.55;;;0.80;99.90;;;;;;5049454;28;20211;-69
2023/12/01 07:35:23;;;;;;;24.27;15.25;;;0.90;99.90;;;;;;5048812;28;20634;-66
2023/12/01 07:37:52;;;;;;;26.27;16.02;;;0.90;99.90;;;;;;5049529;28;20263;-68
2023/12/01 07:40:23;;;;;;;23.33;13.82;;;0.80;99.90;;;;;;5049206;28;20238;-68
2023/12/01 07:42:53;;;;;;;24.77;14.68;;;0.80;99.90;;;;;;5049604;28;20210;-66
2023/12/01 07:45:22;;;;;;;23.20;13.65;;;0.80;99.90;;;;;;5048701;28;20581;-70
2023/12/01 07:47:52;;;;;;;22.60;14.20;;;0.80;99.90;;;;;;5049467;28;20221;-71
2023/12/01 07:50:20;;;;;;;25.85;15.07;;;0.80;99.90;;;;;;5048634;28;20953;-68
2023/12/01 07:52:50;;;;;;;25.45;14.88;;;1.00;99.90;;;;;;5049374;28;20239;-69
2023/12/01 07:55:20;;;;;;;28.87;15.20;;;1.00;99.90;;;;;;5048483;28;20233;-69
2023/12/01 07:57:48;;;;;;;25.33;15.85;;;1.10;99.90;;;;;;5048512;28;20451;-70
2023/12/01 08:00:19;;;;;;;30.35;16.75;;;1.00;99.90;;;;;;5048069;28;20216;-68
2023/12/01 08:02:51;;;;;;;27.10;15.75;;;1.10;99.90;;;;;;5049304;28;20215;-68
2023/12/01 08:05:20;;;;;;;24.92;15.82;;;1.10;99.90;;;;;;5048209;28;20207;-67
2023/12/01 08:07:51;;;;;;;24.98;15.68;;;1.10;99.90;;;;;;5049086;28;20207;-68
2023/12/01 08:10:20;;;;;;;28.00;14.70;;;1.20;99.90;;;;;;5048393;28;20232;-67
2023/12/01 08:12:50;;;;;;;22.88;14.57;;;1.10;99.90;;;;;;5048846;28;20442;-67
2023/12/01 08:15:19;;;;;;;28.65;16.80;;;1.10;99.90;;;;;;5048783;28;20302;-64
2023/12/01 08:17:47;;;;;;;25.53;15.10;;;1.10;99.90;;;;;;5048963;28;20636;-68
2023/12/01 08:20:18;;;;;;;31.75;16.40;;;1.00;99.90;;;;;;5048510;28;20516;-68
2023/12/01 08:22:47;;;;;;;25.17;16.48;;;1.20;99.90;;;;;;5049041;28;20239;-66
2023/12/01 08:25:15;;;;;;;26.73;15.93;;;1.20;99.90;;;;;;5048505;28;20210;-65
2023/12/01 08:27:43;;;;;;;24.40;15.20;;;1.30;99.90;;;;;;5049303;28;20205;-70
2023/12/01 08:30:12;;;;;;;25.35;16.05;;;1.30;99.90;;;;;;5049097;28;20577;-68
2023/12/01 08:32:48;;;;;;;29.75;17.35;;;1.20;99.90;;;;;;5048941;28;20215;-65
2023/12/01 08:35:17;;;;;;;24.87;15.27;;;1.20;99.90;;;;;;5045549;28;20241;-66
2023/12/01 08:37:45;;;;;;;27.27;15.85;;;1.20;99.90;;;;;;5043432;28;20441;-65
2023/12/01 08:40:13;;;;;;;26.10;16.67;;;1.20;99.90;;;;;;5047906;28;20230;-64
2023/12/01 08:42:42;;;;;;;27.02;16.42;;;1.30;99.90;;;;;;5048076;28;20639;-66
2023/12/01 08:45:11;;;;;;;28.50;16.77;;;1.20;99.90;;;;;;5047328;28;20289;-67
2023/12/01 08:47:41;;;;;;;27.03;16.10;;;1.30;99.90;;;;;;5048117;28;20454;-66
2023/12/01 08:50:11;;;;;;;31.48;18.60;;;1.30;99.90;;;;;;5047627;28;20483;-66
2023/12/01 08:52:39;;;;;;;28.10;16.53;;;1.30;99.90;;;;;;5048156;28;20260;-65
2023/12/01 08:55:10;;;;;;;28.27;18.13;;;1.40;99.90;;;;;;5047177;28;21010;-66
2023/12/01 08:57:38;;;;;;;29.98;16.23;;;1.50;99.90;;;;;;5048260;28;20323;-68
2023/12/01 09:00:07;;;;;;;24.00;15.77;;;1.50;99.90;;;;;;5046915;28;20231;-69
2023/12/01 09:02:35;;;;;;;28.92;17.42;;;1.50;99.90;;;;;;5046280;28;20447;-65
2023/12/01 09:05:04;;;;;;;25.10;16.10;;;1.60;99.90;;;;;;5044940;28;20232;-66
2023/12/01 09:07:34;;;;;;;26.67;16.37;;;1.70;99.90;;;;;;5046949;28;20451;-67
2023/12/01 09:10:02;;;;;;;24.83;15.23;;;1.70;99.90;;;;;;5045974;28;20455;-66
2023/12/01 09:12:30;;;;;;;25.33;14.30;;;1.70;99.90;;;;;;5047077;28;20470;-68
2023/12/01 09:14:58;;;;;;;25.33;15.00;;;1.50;99.90;;;;;;5045982;28;20302;-66
2023/12/01 09:17:26;;;;;;;24.67;15.77;;;1.60;99.90;;;;;;5046529;28;20448;-67
2023/12/01 09:19:54;;;;;;;21.33;13.23;;;1.80;99.90;;;;;;5046069;28;20507;-67
2023/12/01 09:22:22;;;;;;;22.13;14.13;;;1.80;99.90;;;;;;5046385;28;20470;-67
2023/12/01 09:24:51;;;;;;;24.93;15.10;;;1.90;99.90;;;;;;5046119;28;20528;-67
2023/12/01 09:27:19;;;;;;;23.40;14.83;;;1.90;99.90;;;;;;5046561;28;20530;-68
2023/12/01 09:29:47;;;;;;;25.73;15.80;;;1.90;99.90;;;;;;5045395;28;20438;-67
2023/12/01 09:32:18;;;;;;;22.60;14.50;;;1.80;99.90;;;;;;5047519;28;20467;-67
2023/12/01 09:34:46;;;;;;;23.70;14.57;;;1.80;99.90;;;;;;5042053;28;20540;-67
2023/12/01 09:37:14;;;;;;;25.02;15.48;;;1.70;99.90;;;;;;5047348;28;20503;-66
2023/12/01 09:39:42;;;;;;;24.87;15.40;;;1.70;99.90;;;;;;5045482;28;20720;-68
2023/12/01 09:42:15;;;;;;;24.47;15.27;;;1.70;99.90;;;;;;5047515;28;20462;-66
2023/12/01 09:44:44;;;;;;;24.35;15.35;;;1.80;99.90;;;;;;5046368;28;20455;-68
2023/12/01 09:47:13;;;;;;;22.67;14.80;;;1.90;99.90;;;;;;5047145;28;20216;-67
2023/12/01 09:49:42;;;;;;;23.67;13.93;;;1.90;99.90;;;;;;5046382;28;20538;-66
2023/12/01 09:52:10;;;;;;;24.02;15.05;;;2.00;99.90;;;;;;5042362;28;20882;-68
2023/12/01 09:54:38;;;;;;;24.10;14.70;;;1.90;99.90;;;;;;5039903;28;20219;-68
2023/12/01 09:57:07;;;;;;;24.67;14.03;;;1.90;99.90;;;;;;5043712;28;20502;-67
2023/12/01 09:59:39;;;;;;;23.33;15.60;;;1.90;99.90;;;;;;5045249;28;21205;-66
2023/12/01 10:02:08;;;;;;;22.80;13.90;;;2.00;99.90;;;;;;5046340;28;20498;-68
2023/12/01 10:04:36;;;;;;;25.57;15.93;;;1.90;99.90;;;;;;5044847;28;20448;-67
2023/12/01 10:07:05;;;;;;;25.48;16.02;;;1.80;99.90;;;;;;5046820;28;20533;-67
2023/12/01 10:09:33;;;;;;;25.07;15.30;;;1.80;99.90;;;;;;5046502;28;20296;-67
2023/12/01 10:12:10;;;;;;;23.20;15.00;;;1.80;99.90;;;;;;5046938;28;21094;-67
2023/12/01 10:14:41;;;;;;;24.80;16.17;;;2.00;99.90;;;;;;5046217;28;20462;-67
2023/12/01 10:17:12;;;;;;;23.73;14.93;;;2.10;99.90;;;;;;5047012;28;20480;-68
2023/12/01 10:19:47;;;;;;;22.70;14.13;;;2.10;99.90;;;;;;5046967;28;20899;-66
2023/12/01 10:22:17;;;;;;;23.00;13.73;;;2.10;99.90;;;;;;5048768;28;20463;-67
2023/12/01 10:24:53;;;;;;;25.77;15.07;;;2.20;99.90;;;;;;5050261;28;20444;-67
2023/12/01 10:27:21;;;;;;;26.70;15.53;;;2.10;99.90;;;;;;5051096;28;20450;-65
2023/12/01 10:29:51;;;;;;;26.73;16.10;;;1.90;99.90;;;;;;5050594;28;20435;-66
2023/12/01 10:32:19;;;;;;;29.83;17.90;;;1.80;99.90;;;;;;5051107;28;20476;-67
2023/12/01 10:34:52;;;;;;;29.70;17.23;;;1.70;99.90;;;;;;5045134;28;20447;-66
2023/12/01 10:37:22;;;;;;;32.70;19.08;;;1.60;99.90;;;;;;5049831;28;20900;-66
2023/12/01 10:39:55;;;;;;;31.67;20.05;;;1.60;99.90;;;;;;5044911;28;20237;-67
2023/12/01 10:42:24;;;;;;;32.67;19.67;;;1.60;99.90;;;;;;5049023;28;20717;-66
2023/12/01 10:44:56;;;;;;;34.92;19.98;;;1.60;99.90;;;;;;5048479;28;20306;-67
2023/12/01 10:47:26;;;;;;;31.45;19.20;;;1.70;99.90;;;;;;5048928;28;20210;-67
2023/12/01 10:49:56;;;;;;;31.02;19.08;;;1.60;99.90;;;;;;5048593;28;20212;-67
2023/12/01 10:52:25;;;;;;;29.00;18.00;;;1.60;99.90;;;;;;5048439;28;20234;-68
2023/12/01 10:54:54;;;;;;;30.52;18.67;;;1.60;99.90;;;;;;5048086;28;20296;-67
2023/12/01 10:57:31;;;;;;;33.17;18.60;;;1.60;99.90;;;;;;5047537;28;20253;-65
2023/12/01 11:00:19;;;;;;;32.85;18.23;;;1.70;99.90;;;;;;5045976;28;20225;-67
2023/12/01 11:02:52;;;;;;;31.50;18.63;;;1.70;99.90;;;;;;5049141;28;20212;-69
2023/12/01 11:05:20;;;;;;;32.63;18.40;;;1.70;99.90;;;;;;5048339;28;20212;-66
2023/12/01 11:08:01;;;;;;;33.90;20.20;;;1.90;99.90;;;;;;5048420;28;20445;-67
2023/12/01 11:10:41;;;;;;;33.87;19.20;;;2.00;99.90;;;;;;5049587;28;20579;-68
2023/12/01 11:13:22;;;;;;;34.50;20.30;;;2.00;99.90;;;;;;5049940;28;20450;-67
2023/12/01 11:15:55;;;;;;;29.30;16.90;;;2.00;99.90;;;;;;5045059;28;20446;-68
2023/12/01 11:18:23;;;;;;;29.65;17.35;;;2.00;99.90;;;;;;5048291;28;20479;-67
2023/12/01 11:20:53;;;;;;;32.42;17.92;;;1.90;99.90;;;;;;5048293;28;20243;-67
2023/12/01 11:23:24;;;;;;;30.00;18.17;;;1.90;99.90;;;;;;5049376;28;20218;-69
2023/12/01 11:25:55;;;;;;;33.83;18.23;;;1.80;99.90;;;;;;5044895;28;20453;-68
2023/12/01 11:28:41;;;;;;;34.63;19.10;;;1.80;99.90;;;;;;5049264;28;20435;-68
2023/12/01 11:31:13;;;;;;;30.07;17.47;;;1.80;99.90;;;;;;5049188;28;20277;-69
2023/12/01 11:33:46;;;;;;;33.88;19.75;;;1.90;99.90;;;;;;5049162;28;20735;-67
2023/12/01 11:36:30;;;;;;;34.10;18.90;;;2.00;99.90;;;;;;5047800;28;20218;-69
2023/12/01 11:39:27;;;;;;;33.23;19.33;;;2.10;99.90;;;;;;5045150;28;20788;-68
2023/12/01 11:42:15;;;;;;;32.90;19.08;;;2.00;99.90;;;;;;5046959;28;20530;-67
2023/12/01 11:44:44;;;;;;;33.23;20.73;;;2.10;99.90;;;;;;5047238;28;20268;-67
2023/12/01 11:47:14;;;;;;;34.70;21.57;;;2.20;99.90;;;;;;5047160;28;20868;-69
2023/12/01 11:49:44;;;;;;;32.50;19.03;;;2.30;99.90;;;;;;5047345;28;20945;-68
2023/12/01 11:52:18;;;;;;;32.17;19.57;;;2.30;99.90;;;;;;5048096;28;20461;-66
2023/12/01 11:54:47;;;;;;;36.67;18.70;;;2.20;99.90;;;;;;5046936;28;20542;-69
2023/12/01 11:57:17;;;;;;;34.43;18.07;;;2.10;99.90;;;;;;5047733;28;20446;-68
2023/12/01 11:59:47;;;;;;;31.42;19.17;;;2.00;99.90;;;;;;5047675;28;20462;-67
2023/12/01 12:02:17;;;;;;;34.13;20.27;;;1.90;99.90;;;;;;5047240;28;20235;-68
2023/12/01 12:04:46;;;;;;;33.90;19.55;;;1.80;99.90;;;;;;5046506;28;20214;-67
2023/12/01 12:07:16;;;;;;;35.50;20.33;;;1.70;99.90;;;;;;5049360;28;20206;-67
2023/12/01 12:09:45;;;;;;;40.35;22.08;;;1.60;99.90;;;;;;5048421;28;20450;-67
2023/12/01 12:12:14;;;;;;;36.40;21.02;;;1.60;99.90;;;;;;5049051;28;20223;-67
2023/12/01 12:14:44;;;;;;;42.65;21.98;;;1.60;99.90;;;;;;5048525;28;20208;-68
2023/12/01 12:17:12;;;;;;;37.83;20.92;;;1.60;99.90;;;;;;5049446;28;20245;-67
2023/12/01 12:19:43;;;;;;;38.63;21.13;;;1.60;99.90;;;;;;5048639;28;20215;-67
2023/12/01 12:22:20;;;;;;;39.15;22.38;;;1.70;99.90;;;;;;5048265;28;20229;-67
2023/12/01 12:24:50;;;;;;;39.88;22.05;;;1.70;99.90;;;;;;5044089;28;20212;-66
2023/12/01 12:27:19;;;;;;;38.75;19.60;;;1.70;99.90;;;;;;5047017;28;20670;-65
2023/12/01 12:29:47;;;;;;;37.97;19.77;;;1.70;99.90;;;;;;5048478;28;20215;-66
2023/12/01 12:32:16;;;;;;;37.70;20.25;;;1.80;99.90;;;;;;5048358;28;20323;-67
2023/12/01 12:34:45;;;;;;;37.53;20.40;;;1.70;99.90;;;;;;5047073;28;20245;-68
2023/12/01 12:37:14;;;;;;;43.53;22.83;;;1.60;99.90;;;;;;5048421;28;20208;-66
2023/12/01 12:39:45;;;;;;;41.55;21.45;;;1.70;99.90;;;;;;5047979;28;20230;-66
2023/12/01 12:42:16;;;;;;;37.00;20.17;;;1.70;99.90;;;;;;5047493;28;20234;-67
2023/12/01 12:44:45;;;;;;;40.80;22.30;;;1.80;99.90;;;;;;5046114;28;20902;-69
2023/12/01 12:47:13;;;;;;;42.13;22.90;;;1.80;99.90;;;;;;5046812;28;20207;-67